Terminal Aerodrome Forecast
Issued by NWS Jackson, MS

Home | Current Version | Previous Version | Text Only | Print | Product List | Glossary On
Versions: 1 2 3 4 5 6 7 8 9 10 11 12 13
000
FTUS44 KJAN 292300
TAFMEI
TAF
KMEI 292329Z 3000/3024 24008KT P6SM SCT110 BKN250
     FM300200 33010G17KT P6SM SCT110 BKN250
     FM300800 36010KT P6SM BKN250=

USA.gov is the U.S. government's official web portal to all federal, state and local government web resources and services.